Skip Navigation Links
NOAA logo - Click to go to the NOAA homepage
NOAA's National Weather Service
Alaska Aviation Weather Unit
  NWS logo - Click to go to the NWS homepage
Left Navbar Graphic     02 AKDT = 10 GMT

   
NOAA is celebrating 200 years of science, service, and stewardship. Visit the NOAA 200th celebration Web site to learn more.
USA.gov is the U.S. Government's official Web portal to all Federal, state and local government Web resources and services.
Facebook
NWS on Facebook

AAWU Home :: Display TAF Add Bookmark
METAR PASH 270416Z AUTO 00000KT 10SM OVC005 M18/M24 A3005 RMK AO1
     PNO=

METAR PASH 270436Z AUTO 00000KT 10SM OVC004 M19/M24 A3005 RMK AO1
     PNO=

METAR PASH 270456Z AUTO 00000KT 10SM SCT005 M20/M26 A3005 RMK AO1
     PNO=

METAR PASH 270516Z AUTO 03006KT 10SM FEW004 M21/M26 A3005 RMK AO1
     PNO=

METAR PASH 270536Z AUTO 03012G20KT 10SM FEW002 M22/M27 A3005 RMK AO1
     PNO=

METAR PASH 270556Z AUTO 00000KT 10SM CLR M23/M27 A3005 RMK AO1 11160
     21230 57003 PNO=

METAR PASH 270616Z AUTO 00000KT 10SM CLR M23/M28 A3005 RMK AO1 PNO=

METAR PASH 270636Z AUTO 00000KT 10SM CLR M24/M28 A3005 RMK AO1 PNO=

METAR PASH 270656Z AUTO 00000KT 10SM CLR M24/M28 A3005 RMK AO1 PNO=

METAR PASH 270716Z AUTO 03008KT 10SM CLR M24/M29 A3004 RMK AO1 PNO=

METAR PASH 270736Z AUTO 00000KT 10SM CLR M25/M29 A3004 RMK AO1 PNO=

METAR PASH 270756Z AUTO 04007G23KT 10SM CLR M25/M29 A3004 RMK AO1
     PNO=

METAR PASH 270816Z AUTO 05018G23KT 10SM CLR M26/M30 A3004 RMK AO1
     PNO=

METAR PASH 270836Z AUTO 05019G23KT 10SM CLR M26/M30 A3004 RMK AO1
     PNO=

METAR PASH 270916Z AUTO 00000KT 10SM CLR M26/M30 A3004 RMK AO1 PNO=

METAR PASH 270936Z AUTO 00000KT 10SM CLR M26/M31 A3003 RMK AO1 PNO=

METAR PASH 270956Z AUTO 00000KT 10SM CLR M26/M31 A3003 RMK AO1 PNO=

METAR PASH 271016Z AUTO 04020G23KT 10SM CLR M27/M32 A3003 RMK AO1
     PNO=

METAR PASH 271036Z AUTO 00000KT 10SM CLR M27/M31 A3003 RMK AO1 PNO=


NOAA's National Weather Service
Alaska Aviation Weather Unit
6930 Sand Lake Road
Anchorage, AK 99502-1845
Disclaimer
Credits
Glossary
Privacy Policy
About Us
Career Opportunities
Contact AAWU Internet Services Site last modified: April, 17th 2012